Turner Valley, Canada
Current Conditions -  °F | °C
As of 6:00 AM on Wednesday 26 Nov 2014 (Local Time) from CYBW Reporting Station
Haze Haze  
Wind Chill: 14°   Ceiling: 300
Heat Index: 21°   Visibility: 2.5mi
Dew Point: 21°   Wind: 6mph
Humidity: 100%   Direction: 140°SE
Pressure: 30.07"   Gusts: NA
Location:  50.68°N, 114.27°W
Report Text: CYBW 261300Z AUTO 14005KT 2 1/2SM BR BKN003 BKN110 M06/M06 A3007 RMK SLP246
Loading
Personal Weather Stations






























Interactive Weather Map New forecast layout! Learn more

10-Day Weather Forecast

Advertisements
Track Severe Weather on mobile